sensor_id;sensor_type;location;lat;lon;timestamp;P1;durP1;ratioP1;P2;durP2;ratioP2
47625;SDS011;33342;45.574;9.252;2023-05-10T00:01:09;18.00;;;15.93;;
47625;SDS011;33342;45.574;9.252;2023-05-10T00:03:36;19.23;;;14.98;;
47625;SDS011;33342;45.574;9.252;2023-05-10T00:06:03;17.88;;;14.85;;
47625;SDS011;33342;45.574;9.252;2023-05-10T00:08:31;16.60;;;13.55;;
47625;SDS011;33342;45.574;9.252;2023-05-10T00:10:58;16.65;;;14.00;;
47625;SDS011;33342;45.574;9.252;2023-05-10T00:13:24;17.10;;;14.68;;
47625;SDS011;33342;45.574;9.252;2023-05-10T00:15:52;17.38;;;14.45;;
47625;SDS011;33342;45.574;9.252;2023-05-10T00:18:19;18.73;;;14.63;;
47625;SDS011;33342;45.574;9.252;2023-05-10T00:20:46;17.38;;;14.38;;
47625;SDS011;33342;45.574;9.252;2023-05-10T00:23:15;17.50;;;15.02;;
47625;SDS011;33342;45.574;9.252;2023-05-10T00:25:42;16.65;;;14.05;;
47625;SDS011;33342;45.574;9.252;2023-05-10T00:28:09;15.25;;;13.02;;
47625;SDS011;33342;45.574;9.252;2023-05-10T00:30:36;17.17;;;14.20;;
47625;SDS011;33342;45.574;9.252;2023-05-10T00:33:03;17.58;;;15.50;;
47625;SDS011;33342;45.574;9.252;2023-05-10T00:35:30;16.02;;;14.07;;
47625;SDS011;33342;45.574;9.252;2023-05-10T00:37:57;18.48;;;15.05;;
47625;SDS011;33342;45.574;9.252;2023-05-10T00:40:24;16.42;;;14.20;;
47625;SDS011;33342;45.574;9.252;2023-05-10T00:42:56;16.60;;;13.35;;
47625;SDS011;33342;45.574;9.252;2023-05-10T00:45:24;16.10;;;13.27;;
47625;SDS011;33342;45.574;9.252;2023-05-10T00:47:51;15.57;;;13.15;;
47625;SDS011;33342;45.574;9.252;2023-05-10T00:50:40;14.07;;;12.13;;
47625;SDS011;33342;45.574;9.252;2023-05-10T00:53:07;15.27;;;11.60;;
47625;SDS011;33342;45.574;9.252;2023-05-10T00:55:35;15.13;;;12.55;;
47625;SDS011;33342;45.574;9.252;2023-05-10T00:58:03;14.38;;;11.27;;
47625;SDS011;33342;45.574;9.252;2023-05-10T01:00:32;12.60;;;10.55;;
47625;SDS011;33342;45.574;9.252;2023-05-10T01:03:00;14.82;;;12.27;;
47625;SDS011;33342;45.574;9.252;2023-05-10T01:05:27;17.83;;;12.77;;
47625;SDS011;33342;45.574;9.252;2023-05-10T01:07:56;14.98;;;11.80;;
47625;SDS011;33342;45.574;9.252;2023-05-10T01:10:23;16.88;;;12.25;;
47625;SDS011;33342;45.574;9.252;2023-05-10T01:12:50;13.55;;;12.10;;
47625;SDS011;33342;45.574;9.252;2023-05-10T01:15:17;14.30;;;12.55;;
47625;SDS011;33342;45.574;9.252;2023-05-10T01:17:46;15.20;;;12.88;;
47625;SDS011;33342;45.574;9.252;2023-05-10T01:20:14;16.23;;;12.85;;
47625;SDS011;33342;45.574;9.252;2023-05-10T01:22:47;14.68;;;12.15;;
47625;SDS011;33342;45.574;9.252;2023-05-10T01:34:53;14.68;;;10.90;;
47625;SDS011;33342;45.574;9.252;2023-05-10T01:40:09;10.15;;;9.00;;
47625;SDS011;33342;45.574;9.252;2023-05-10T01:42:47;12.75;;;9.27;;
47625;SDS011;33342;45.574;9.252;2023-05-10T01:45:21;10.93;;;9.02;;
47625;SDS011;33342;45.574;9.252;2023-05-10T01:47:58;10.07;;;8.10;;
47625;SDS011;33342;45.574;9.252;2023-05-10T01:50:32;10.73;;;7.85;;
47625;SDS011;33342;45.574;9.252;2023-05-10T01:53:01;9.43;;;7.30;;
47625;SDS011;33342;45.574;9.252;2023-05-10T01:55:30;10.07;;;7.22;;
47625;SDS011;33342;45.574;9.252;2023-05-10T01:58:07;10.52;;;6.70;;
47625;SDS011;33342;45.574;9.252;2023-05-10T02:00:39;8.80;;;6.63;;
47625;SDS011;33342;45.574;9.252;2023-05-10T02:03:09;8.63;;;6.15;;
47625;SDS011;33342;45.574;9.252;2023-05-10T02:05:38;9.80;;;6.40;;
47625;SDS011;33342;45.574;9.252;2023-05-10T02:08:06;8.68;;;6.22;;
47625;SDS011;33342;45.574;9.252;2023-05-10T02:10:36;8.35;;;6.18;;
47625;SDS011;33342;45.574;9.252;2023-05-10T02:13:04;8.25;;;6.03;;
47625;SDS011;33342;45.574;9.252;2023-05-10T02:15:33;9.50;;;5.75;;
47625;SDS011;33342;45.574;9.252;2023-05-10T02:18:02;7.30;;;5.47;;
47625;SDS011;33342;45.574;9.252;2023-05-10T02:20:32;7.78;;;5.55;;
47625;SDS011;33342;45.574;9.252;2023-05-10T02:23:01;7.38;;;4.72;;
47625;SDS011;33342;45.574;9.252;2023-05-10T02:25:29;7.43;;;5.28;;
47625;SDS011;33342;45.574;9.252;2023-05-10T02:27:58;7.47;;;4.82;;
47625;SDS011;33342;45.574;9.252;2023-05-10T02:30:28;7.30;;;5.45;;
47625;SDS011;33342;45.574;9.252;2023-05-10T02:32:57;8.73;;;5.50;;
47625;SDS011;33342;45.574;9.252;2023-05-10T02:35:25;7.97;;;5.13;;
47625;SDS011;33342;45.574;9.252;2023-05-10T02:37:53;8.40;;;5.78;;
47625;SDS011;33342;45.574;9.252;2023-05-10T02:40:21;8.38;;;5.47;;
47625;SDS011;33342;45.574;9.252;2023-05-10T02:42:54;7.53;;;5.70;;
47625;SDS011;33342;45.574;9.252;2023-05-10T02:45:24;8.55;;;5.80;;
47625;SDS011;33342;45.574;9.252;2023-05-10T02:47:54;9.50;;;6.28;;
47625;SDS011;33342;45.574;9.252;2023-05-10T02:50:22;8.40;;;6.20;;
47625;SDS011;33342;45.574;9.252;2023-05-10T02:52:54;9.25;;;6.07;;
47625;SDS011;33342;45.574;9.252;2023-05-10T02:55:31;8.98;;;5.90;;
47625;SDS011;33342;45.574;9.252;2023-05-10T02:58:03;8.35;;;6.25;;
47625;SDS011;33342;45.574;9.252;2023-05-10T03:00:30;8.93;;;6.50;;
47625;SDS011;33342;45.574;9.252;2023-05-10T03:02:58;8.27;;;6.25;;
47625;SDS011;33342;45.574;9.252;2023-05-10T03:05:26;9.65;;;7.07;;
47625;SDS011;33342;45.574;9.252;2023-05-10T03:07:54;9.07;;;6.68;;
47625;SDS011;33342;45.574;9.252;2023-05-10T03:10:24;9.73;;;6.60;;
47625;SDS011;33342;45.574;9.252;2023-05-10T03:13:02;11.07;;;6.93;;
47625;SDS011;33342;45.574;9.252;2023-05-10T03:21:14;10.10;;;6.75;;
47625;SDS011;33342;45.574;9.252;2023-05-10T03:23:47;10.35;;;6.40;;
47625;SDS011;33342;45.574;9.252;2023-05-10T03:26:24;8.77;;;5.85;;
47625;SDS011;33342;45.574;9.252;2023-05-10T03:29:02;7.50;;;5.13;;
47625;SDS011;33342;45.574;9.252;2023-05-10T03:31:32;8.38;;;5.22;;
47625;SDS011;33342;45.574;9.252;2023-05-10T03:33:59;8.43;;;5.78;;
47625;SDS011;33342;45.574;9.252;2023-05-10T03:36:26;6.82;;;5.13;;
47625;SDS011;33342;45.574;9.252;2023-05-10T03:38:54;7.95;;;5.22;;
47625;SDS011;33342;45.574;9.252;2023-05-10T03:41:21;7.68;;;5.68;;
47625;SDS011;33342;45.574;9.252;2023-05-10T03:43:48;9.55;;;5.50;;
47625;SDS011;33342;45.574;9.252;2023-05-10T03:46:15;9.15;;;4.93;;
47625;SDS011;33342;45.574;9.252;2023-05-10T03:48:43;9.32;;;5.43;;
47625;SDS011;33342;45.574;9.252;2023-05-10T03:51:10;7.90;;;5.28;;
47625;SDS011;33342;45.574;9.252;2023-05-10T03:53:38;11.20;;;4.93;;
47625;SDS011;33342;45.574;9.252;2023-05-10T03:56:06;8.43;;;5.38;;
47625;SDS011;33342;45.574;9.252;2023-05-10T03:58:33;8.00;;;4.93;;
47625;SDS011;33342;45.574;9.252;2023-05-10T04:01:00;7.60;;;4.60;;
47625;SDS011;33342;45.574;9.252;2023-05-10T04:03:27;6.85;;;4.80;;
47625;SDS011;33342;45.574;9.252;2023-05-10T04:05:58;6.53;;;4.60;;
47625;SDS011;33342;45.574;9.252;2023-05-10T04:08:27;6.55;;;4.78;;
47625;SDS011;33342;45.574;9.252;2023-05-10T04:11:08;10.05;;;4.65;;
47625;SDS011;33342;45.574;9.252;2023-05-10T04:13:37;6.47;;;4.30;;
47625;SDS011;33342;45.574;9.252;2023-05-10T04:16:04;6.93;;;4.75;;
47625;SDS011;33342;45.574;9.252;2023-05-10T04:18:31;7.38;;;4.22;;
47625;SDS011;33342;45.574;9.252;2023-05-10T04:20:59;7.50;;;4.50;;
47625;SDS011;33342;45.574;9.252;2023-05-10T04:23:29;7.55;;;4.57;;
47625;SDS011;33342;45.574;9.252;2023-05-10T04:26:00;6.65;;;4.32;;
47625;SDS011;33342;45.574;9.252;2023-05-10T04:28:27;7.05;;;4.47;;
47625;SDS011;33342;45.574;9.252;2023-05-10T04:31:07;7.60;;;4.38;;
47625;SDS011;33342;45.574;9.252;2023-05-10T04:33:35;7.00;;;4.35;;
47625;SDS011;33342;45.574;9.252;2023-05-10T04:36:03;6.57;;;4.82;;
47625;SDS011;33342;45.574;9.252;2023-05-10T04:38:30;6.65;;;4.20;;
47625;SDS011;33342;45.574;9.252;2023-05-10T04:41:04;6.95;;;4.57;;
47625;SDS011;33342;45.574;9.252;2023-05-10T04:43:35;6.78;;;4.20;;
47625;SDS011;33342;45.574;9.252;2023-05-10T04:46:03;7.45;;;4.55;;
47625;SDS011;33342;45.574;9.252;2023-05-10T04:48:30;6.43;;;4.15;;
47625;SDS011;33342;45.574;9.252;2023-05-10T04:50:57;6.35;;;4.15;;
47625;SDS011;33342;45.574;9.252;2023-05-10T04:53:24;5.70;;;3.90;;
47625;SDS011;33342;45.574;9.252;2023-05-10T04:55:51;6.80;;;4.10;;
47625;SDS011;33342;45.574;9.252;2023-05-10T04:58:18;6.72;;;3.70;;
47625;SDS011;33342;45.574;9.252;2023-05-10T05:00:45;6.97;;;3.83;;
47625;SDS011;33342;45.574;9.252;2023-05-10T05:03:12;7.72;;;4.18;;
47625;SDS011;33342;45.574;9.252;2023-05-10T05:05:39;7.15;;;3.70;;
47625;SDS011;33342;45.574;9.252;2023-05-10T05:08:06;7.55;;;4.32;;
47625;SDS011;33342;45.574;9.252;2023-05-10T05:10:33;6.78;;;3.72;;
47625;SDS011;33342;45.574;9.252;2023-05-10T05:13:01;7.20;;;3.92;;
47625;SDS011;33342;45.574;9.252;2023-05-10T05:15:28;43.28;;;37.85;;
47625;SDS011;33342;45.574;9.252;2023-05-10T05:17:57;20.60;;;15.90;;
47625;SDS011;33342;45.574;9.252;2023-05-10T05:20:25;7.22;;;5.13;;
47625;SDS011;33342;45.574;9.252;2023-05-10T05:22:53;7.25;;;4.50;;
47625;SDS011;33342;45.574;9.252;2023-05-10T05:25:21;7.88;;;4.32;;
47625;SDS011;33342;45.574;9.252;2023-05-10T05:27:48;7.10;;;4.10;;
47625;SDS011;33342;45.574;9.252;2023-05-10T05:30:16;8.00;;;4.45;;
47625;SDS011;33342;45.574;9.252;2023-05-10T05:32:43;6.82;;;4.28;;
47625;SDS011;33342;45.574;9.252;2023-05-10T05:35:11;6.97;;;4.47;;
47625;SDS011;33342;45.574;9.252;2023-05-10T05:37:38;7.30;;;4.43;;
47625;SDS011;33342;45.574;9.252;2023-05-10T05:40:05;7.47;;;4.45;;
47625;SDS011;33342;45.574;9.252;2023-05-10T05:42:33;7.53;;;4.63;;
47625;SDS011;33342;45.574;9.252;2023-05-10T05:45:00;9.65;;;4.97;;
47625;SDS011;33342;45.574;9.252;2023-05-10T05:47:27;8.45;;;4.55;;
47625;SDS011;33342;45.574;9.252;2023-05-10T05:49:54;8.02;;;4.57;;
47625;SDS011;33342;45.574;9.252;2023-05-10T05:52:21;7.35;;;4.68;;
47625;SDS011;33342;45.574;9.252;2023-05-10T05:54:48;9.85;;;7.32;;
47625;SDS011;33342;45.574;9.252;2023-05-10T05:57:15;8.85;;;6.40;;
47625;SDS011;33342;45.574;9.252;2023-05-10T05:59:42;7.85;;;5.03;;
47625;SDS011;33342;45.574;9.252;2023-05-10T06:02:10;9.27;;;5.25;;
47625;SDS011;33342;45.574;9.252;2023-05-10T06:04:37;7.85;;;5.05;;
47625;SDS011;33342;45.574;9.252;2023-05-10T06:07:04;7.68;;;5.22;;
47625;SDS011;33342;45.574;9.252;2023-05-10T06:09:32;9.40;;;4.95;;
47625;SDS011;33342;45.574;9.252;2023-05-10T06:11:59;7.00;;;4.90;;
47625;SDS011;33342;45.574;9.252;2023-05-10T06:14:26;8.13;;;5.30;;
47625;SDS011;33342;45.574;9.252;2023-05-10T06:16:53;9.75;;;5.20;;
47625;SDS011;33342;45.574;9.252;2023-05-10T06:19:20;8.45;;;5.57;;
47625;SDS011;33342;45.574;9.252;2023-05-10T06:21:47;7.75;;;5.82;;
47625;SDS011;33342;45.574;9.252;2023-05-10T06:24:14;8.55;;;5.85;;
47625;SDS011;33342;45.574;9.252;2023-05-10T06:26:41;9.23;;;5.55;;
47625;SDS011;33342;45.574;9.252;2023-05-10T06:29:08;9.02;;;6.03;;
47625;SDS011;33342;45.574;9.252;2023-05-10T06:31:35;9.02;;;6.35;;
47625;SDS011;33342;45.574;9.252;2023-05-10T06:34:02;10.57;;;5.93;;
47625;SDS011;33342;45.574;9.252;2023-05-10T06:36:29;8.48;;;6.20;;
47625;SDS011;33342;45.574;9.252;2023-05-10T06:38:56;8.02;;;6.32;;
47625;SDS011;33342;45.574;9.252;2023-05-10T06:41:23;10.63;;;6.15;;
47625;SDS011;33342;45.574;9.252;2023-05-10T06:43:50;10.63;;;6.43;;
47625;SDS011;33342;45.574;9.252;2023-05-10T06:46:17;9.05;;;6.28;;
47625;SDS011;33342;45.574;9.252;2023-05-10T06:48:44;9.82;;;6.10;;
47625;SDS011;33342;45.574;9.252;2023-05-10T06:51:11;13.25;;;6.88;;
47625;SDS011;33342;45.574;9.252;2023-05-10T06:53:38;10.70;;;6.85;;
47625;SDS011;33342;45.574;9.252;2023-05-10T06:56:05;9.82;;;6.43;;
47625;SDS011;33342;45.574;9.252;2023-05-10T06:58:32;10.55;;;6.20;;
47625;SDS011;33342;45.574;9.252;2023-05-10T07:01:03;8.75;;;6.18;;
47625;SDS011;33342;45.574;9.252;2023-05-10T07:03:33;8.68;;;6.30;;
47625;SDS011;33342;45.574;9.252;2023-05-10T07:06:01;9.90;;;6.28;;
47625;SDS011;33342;45.574;9.252;2023-05-10T07:08:31;8.65;;;6.22;;
47625;SDS011;33342;45.574;9.252;2023-05-10T07:11:00;11.60;;;6.88;;
47625;SDS011;33342;45.574;9.252;2023-05-10T07:13:28;14.93;;;6.75;;
47625;SDS011;33342;45.574;9.252;2023-05-10T07:15:56;11.70;;;6.70;;
47625;SDS011;33342;45.574;9.252;2023-05-10T07:18:23;20.65;;;18.02;;
47625;SDS011;33342;45.574;9.252;2023-05-10T07:20:51;27.85;;;23.95;;
47625;SDS011;33342;45.574;9.252;2023-05-10T07:23:18;9.07;;;6.55;;
47625;SDS011;33342;45.574;9.252;2023-05-10T07:25:46;8.75;;;6.40;;
47625;SDS011;33342;45.574;9.252;2023-05-10T07:28:14;10.48;;;7.25;;
47625;SDS011;33342;45.574;9.252;2023-05-10T07:30:42;7.85;;;6.10;;
47625;SDS011;33342;45.574;9.252;2023-05-10T07:33:10;8.32;;;6.40;;
47625;SDS011;33342;45.574;9.252;2023-05-10T07:35:38;9.90;;;7.13;;
47625;SDS011;33342;45.574;9.252;2023-05-10T07:38:06;10.45;;;7.53;;
47625;SDS011;33342;45.574;9.252;2023-05-10T07:40:33;10.07;;;8.18;;
47625;SDS011;33342;45.574;9.252;2023-05-10T07:43:00;11.02;;;7.97;;
47625;SDS011;33342;45.574;9.252;2023-05-10T07:45:28;10.73;;;8.88;;
47625;SDS011;33342;45.574;9.252;2023-05-10T07:47:55;9.75;;;8.23;;
47625;SDS011;33342;45.574;9.252;2023-05-10T07:50:22;10.55;;;8.35;;
47625;SDS011;33342;45.574;9.252;2023-05-10T07:52:49;10.32;;;8.35;;
47625;SDS011;33342;45.574;9.252;2023-05-10T07:55:17;11.48;;;9.95;;
47625;SDS011;33342;45.574;9.252;2023-05-10T07:57:45;12.23;;;9.43;;
47625;SDS011;33342;45.574;9.252;2023-05-10T08:00:12;11.82;;;10.48;;
47625;SDS011;33342;45.574;9.252;2023-05-10T08:02:43;12.43;;;9.70;;
47625;SDS011;33342;45.574;9.252;2023-05-10T08:05:10;12.65;;;8.77;;
47625;SDS011;33342;45.574;9.252;2023-05-10T08:07:37;10.35;;;7.90;;
47625;SDS011;33342;45.574;9.252;2023-05-10T08:10:04;9.05;;;7.20;;
47625;SDS011;33342;45.574;9.252;2023-05-10T08:12:32;9.25;;;6.68;;
47625;SDS011;33342;45.574;9.252;2023-05-10T08:14:59;8.10;;;6.38;;
47625;SDS011;33342;45.574;9.252;2023-05-10T08:17:26;7.60;;;6.20;;
47625;SDS011;33342;45.574;9.252;2023-05-10T08:19:53;8.57;;;6.05;;
47625;SDS011;33342;45.574;9.252;2023-05-10T08:22:20;11.57;;;6.95;;
47625;SDS011;33342;45.574;9.252;2023-05-10T08:24:48;8.40;;;6.00;;
47625;SDS011;33342;45.574;9.252;2023-05-10T08:27:15;13.02;;;10.48;;
47625;SDS011;33342;45.574;9.252;2023-05-10T08:29:42;8.00;;;6.55;;
47625;SDS011;33342;45.574;9.252;2023-05-10T08:32:16;10.50;;;6.78;;
47625;SDS011;33342;45.574;9.252;2023-05-10T08:34:43;9.88;;;7.10;;
47625;SDS011;33342;45.574;9.252;2023-05-10T08:37:10;7.88;;;6.18;;
47625;SDS011;33342;45.574;9.252;2023-05-10T08:39:40;8.40;;;6.55;;
47625;SDS011;33342;45.574;9.252;2023-05-10T08:42:07;10.20;;;7.60;;
47625;SDS011;33342;45.574;9.252;2023-05-10T08:44:35;8.52;;;7.32;;
47625;SDS011;33342;45.574;9.252;2023-05-10T08:47:06;11.13;;;8.20;;
47625;SDS011;33342;45.574;9.252;2023-05-10T08:49:35;9.05;;;7.85;;
47625;SDS011;33342;45.574;9.252;2023-05-10T08:52:04;10.20;;;8.85;;
47625;SDS011;33342;45.574;9.252;2023-05-10T08:54:32;11.07;;;9.88;;
47625;SDS011;33342;45.574;9.252;2023-05-10T08:57:00;10.55;;;9.45;;
47625;SDS011;33342;45.574;9.252;2023-05-10T08:59:27;12.52;;;9.93;;
47625;SDS011;33342;45.574;9.252;2023-05-10T09:01:58;11.63;;;10.43;;
47625;SDS011;33342;45.574;9.252;2023-05-10T09:04:27;10.13;;;9.13;;
47625;SDS011;33342;45.574;9.252;2023-05-10T09:06:54;9.65;;;8.60;;
47625;SDS011;33342;45.574;9.252;2023-05-10T09:09:21;10.73;;;9.60;;
47625;SDS011;33342;45.574;9.252;2023-05-10T09:11:51;9.82;;;8.75;;
47625;SDS011;33342;45.574;9.252;2023-05-10T09:14:19;10.43;;;8.40;;
47625;SDS011;33342;45.574;9.252;2023-05-10T09:16:48;10.43;;;8.68;;
47625;SDS011;33342;45.574;9.252;2023-05-10T09:19:15;13.80;;;12.27;;
47625;SDS011;33342;45.574;9.252;2023-05-10T09:21:42;11.70;;;9.10;;
47625;SDS011;33342;45.574;9.252;2023-05-10T09:24:09;9.85;;;8.10;;
47625;SDS011;33342;45.574;9.252;2023-05-10T09:26:42;9.98;;;8.50;;
47625;SDS011;33342;45.574;9.252;2023-05-10T09:29:16;11.48;;;8.02;;
47625;SDS011;33342;45.574;9.252;2023-05-10T09:31:52;8.63;;;7.10;;
47625;SDS011;33342;45.574;9.252;2023-05-10T09:34:28;9.40;;;7.47;;
47625;SDS011;33342;45.574;9.252;2023-05-10T09:36:57;8.63;;;6.28;;
47625;SDS011;33342;45.574;9.252;2023-05-10T09:39:31;8.55;;;6.07;;
47625;SDS011;33342;45.574;9.252;2023-05-10T09:42:05;7.95;;;5.82;;
47625;SDS011;33342;45.574;9.252;2023-05-10T09:44:35;8.40;;;5.20;;
47625;SDS011;33342;45.574;9.252;2023-05-10T09:47:03;6.95;;;4.70;;
47625;SDS011;33342;45.574;9.252;2023-05-10T09:49:30;7.70;;;5.28;;
47625;SDS011;33342;45.574;9.252;2023-05-10T09:51:59;6.65;;;4.80;;
47625;SDS011;33342;45.574;9.252;2023-05-10T09:54:30;7.03;;;4.70;;
47625;SDS011;33342;45.574;9.252;2023-05-10T09:56:58;7.10;;;4.43;;
47625;SDS011;33342;45.574;9.252;2023-05-10T09:59:25;8.10;;;4.93;;
47625;SDS011;33342;45.574;9.252;2023-05-10T10:01:59;7.15;;;4.95;;
47625;SDS011;33342;45.574;9.252;2023-05-10T10:04:27;8.77;;;4.82;;
47625;SDS011;33342;45.574;9.252;2023-05-10T10:06:58;6.78;;;4.95;;
47625;SDS011;33342;45.574;9.252;2023-05-10T10:11:58;7.38;;;4.93;;
47625;SDS011;33342;45.574;9.252;2023-05-10T10:14:29;6.35;;;5.00;;
47625;SDS011;33342;45.574;9.252;2023-05-10T10:16:56;7.40;;;5.28;;
47625;SDS011;33342;45.574;9.252;2023-05-10T10:19:33;7.78;;;5.13;;
47625;SDS011;33342;45.574;9.252;2023-05-10T10:22:04;6.88;;;4.38;;
47625;SDS011;33342;45.574;9.252;2023-05-10T10:24:32;6.85;;;5.00;;
47625;SDS011;33342;45.574;9.252;2023-05-10T10:27:01;6.03;;;4.20;;
47625;SDS011;33342;45.574;9.252;2023-05-10T10:32:21;6.95;;;3.90;;
47625;SDS011;33342;45.574;9.252;2023-05-10T10:34:54;6.47;;;4.20;;
47625;SDS011;33342;45.574;9.252;2023-05-10T10:37:22;6.95;;;4.45;;
47625;SDS011;33342;45.574;9.252;2023-05-10T10:39:50;6.40;;;4.75;;
47625;SDS011;33342;45.574;9.252;2023-05-10T10:45:22;6.97;;;4.30;;
47625;SDS011;33342;45.574;9.252;2023-05-10T10:48:14;8.18;;;4.85;;
47625;SDS011;33342;45.574;9.252;2023-05-10T10:50:47;11.85;;;6.10;;
47625;SDS011;33342;45.574;9.252;2023-05-10T10:53:23;9.63;;;5.85;;
47625;SDS011;33342;45.574;9.252;2023-05-10T10:56:07;6.30;;;4.45;;
47625;SDS011;33342;45.574;9.252;2023-05-10T10:58:37;6.75;;;4.68;;
47625;SDS011;33342;45.574;9.252;2023-05-10T11:01:14;6.63;;;4.63;;
47625;SDS011;33342;45.574;9.252;2023-05-10T11:09:07;6.40;;;4.50;;
47625;SDS011;33342;45.574;9.252;2023-05-10T11:11:36;7.43;;;5.43;;
47625;SDS011;33342;45.574;9.252;2023-05-10T11:14:14;6.60;;;4.75;;
47625;SDS011;33342;45.574;9.252;2023-05-10T11:16:47;8.20;;;5.63;;
47625;SDS011;33342;45.574;9.252;2023-05-10T11:19:15;8.40;;;5.35;;
47625;SDS011;33342;45.574;9.252;2023-05-10T11:24:17;7.03;;;5.35;;
47625;SDS011;33342;45.574;9.252;2023-05-10T11:26:46;8.02;;;5.22;;
47625;SDS011;33342;45.574;9.252;2023-05-10T11:29:17;7.95;;;5.18;;
47625;SDS011;33342;45.574;9.252;2023-05-10T11:31:45;7.38;;;5.03;;
47625;SDS011;33342;45.574;9.252;2023-05-10T11:34:30;7.15;;;5.43;;
47625;SDS011;33342;45.574;9.252;2023-05-10T11:37:00;6.45;;;4.78;;
47625;SDS011;33342;45.574;9.252;2023-05-10T11:39:27;7.93;;;5.05;;
47625;SDS011;33342;45.574;9.252;2023-05-10T11:41:58;6.65;;;4.85;;
47625;SDS011;33342;45.574;9.252;2023-05-10T11:44:30;8.07;;;4.80;;
47625;SDS011;33342;45.574;9.252;2023-05-10T11:46:59;7.18;;;4.93;;
47625;SDS011;33342;45.574;9.252;2023-05-10T11:49:29;8.95;;;4.82;;
47625;SDS011;33342;45.574;9.252;2023-05-10T11:52:06;9.18;;;5.28;;
47625;SDS011;33342;45.574;9.252;2023-05-10T11:54:34;7.50;;;5.80;;
47625;SDS011;33342;45.574;9.252;2023-05-10T11:57:04;8.30;;;6.22;;
47625;SDS011;33342;45.574;9.252;2023-05-10T11:59:31;8.02;;;5.85;;
47625;SDS011;33342;45.574;9.252;2023-05-10T12:01:58;7.03;;;4.85;;
47625;SDS011;33342;45.574;9.252;2023-05-10T12:04:25;8.27;;;6.15;;
47625;SDS011;33342;45.574;9.252;2023-05-10T12:06:55;9.55;;;6.07;;
47625;SDS011;33342;45.574;9.252;2023-05-10T12:09:23;7.53;;;5.57;;
47625;SDS011;33342;45.574;9.252;2023-05-10T12:12:05;7.35;;;5.93;;
47625;SDS011;33342;45.574;9.252;2023-05-10T12:14:36;7.43;;;5.70;;
47625;SDS011;33342;45.574;9.252;2023-05-10T12:17:03;8.60;;;5.13;;
47625;SDS011;33342;45.574;9.252;2023-05-10T12:19:36;8.80;;;5.70;;
47625;SDS011;33342;45.574;9.252;2023-05-10T12:22:07;8.10;;;5.20;;
47625;SDS011;33342;45.574;9.252;2023-05-10T12:24:34;6.63;;;4.95;;
47625;SDS011;33342;45.574;9.252;2023-05-10T12:27:05;8.95;;;5.60;;
47625;SDS011;33342;45.574;9.252;2023-05-10T12:29:52;7.60;;;5.28;;
47625;SDS011;33342;45.574;9.252;2023-05-10T12:32:20;7.45;;;5.53;;
47625;SDS011;33342;45.574;9.252;2023-05-10T12:34:47;6.78;;;5.40;;
47625;SDS011;33342;45.574;9.252;2023-05-10T12:37:14;9.02;;;5.90;;
47625;SDS011;33342;45.574;9.252;2023-05-10T12:39:45;7.18;;;5.28;;
47625;SDS011;33342;45.574;9.252;2023-05-10T12:42:12;7.50;;;5.47;;
47625;SDS011;33342;45.574;9.252;2023-05-10T12:44:39;7.60;;;5.70;;
47625;SDS011;33342;45.574;9.252;2023-05-10T12:47:06;11.25;;;6.55;;
47625;SDS011;33342;45.574;9.252;2023-05-10T12:49:33;9.30;;;6.75;;
47625;SDS011;33342;45.574;9.252;2023-05-10T12:52:00;9.95;;;7.03;;
47625;SDS011;33342;45.574;9.252;2023-05-10T12:54:27;10.10;;;7.03;;
47625;SDS011;33342;45.574;9.252;2023-05-10T12:56:54;10.55;;;6.95;;
47625;SDS011;33342;45.574;9.252;2023-05-10T12:59:21;9.35;;;6.90;;
47625;SDS011;33342;45.574;9.252;2023-05-10T13:01:49;10.48;;;6.60;;
47625;SDS011;33342;45.574;9.252;2023-05-10T13:04:16;8.63;;;7.05;;
47625;SDS011;33342;45.574;9.252;2023-05-10T13:06:43;11.10;;;7.28;;
47625;SDS011;33342;45.574;9.252;2023-05-10T13:09:10;9.00;;;7.43;;
47625;SDS011;33342;45.574;9.252;2023-05-10T13:11:37;9.70;;;6.97;;
47625;SDS011;33342;45.574;9.252;2023-05-10T13:14:04;8.02;;;6.78;;
47625;SDS011;33342;45.574;9.252;2023-05-10T13:16:31;8.43;;;6.43;;
47625;SDS011;33342;45.574;9.252;2023-05-10T13:18:58;8.02;;;6.72;;
47625;SDS011;33342;45.574;9.252;2023-05-10T13:21:25;8.32;;;6.13;;
47625;SDS011;33342;45.574;9.252;2023-05-10T13:23:53;7.80;;;6.07;;
47625;SDS011;33342;45.574;9.252;2023-05-10T13:26:20;9.15;;;6.43;;
47625;SDS011;33342;45.574;9.252;2023-05-10T13:28:47;8.23;;;6.07;;
47625;SDS011;33342;45.574;9.252;2023-05-10T13:31:15;7.45;;;6.15;;
47625;SDS011;33342;45.574;9.252;2023-05-10T13:33:42;10.70;;;6.75;;
47625;SDS011;33342;45.574;9.252;2023-05-10T13:36:09;9.95;;;7.20;;
47625;SDS011;33342;45.574;9.252;2023-05-10T13:38:35;7.05;;;5.65;;
47625;SDS011;33342;45.574;9.252;2023-05-10T13:41:04;8.13;;;6.47;;
47625;SDS011;33342;45.574;9.252;2023-05-10T13:43:31;7.45;;;5.57;;
47625;SDS011;33342;45.574;9.252;2023-05-10T13:45:57;7.35;;;5.55;;
47625;SDS011;33342;45.574;9.252;2023-05-10T13:48:25;10.10;;;6.25;;
47625;SDS011;33342;45.574;9.252;2023-05-10T13:50:52;7.10;;;5.85;;
47625;SDS011;33342;45.574;9.252;2023-05-10T13:53:19;8.88;;;5.50;;
47625;SDS011;33342;45.574;9.252;2023-05-10T13:55:46;9.52;;;6.10;;
47625;SDS011;33342;45.574;9.252;2023-05-10T13:58:13;8.73;;;5.78;;
47625;SDS011;33342;45.574;9.252;2023-05-10T14:00:40;10.10;;;6.15;;
47625;SDS011;33342;45.574;9.252;2023-05-10T14:03:07;7.20;;;5.80;;
47625;SDS011;33342;45.574;9.252;2023-05-10T14:05:37;8.13;;;6.00;;
47625;SDS011;33342;45.574;9.252;2023-05-10T14:08:04;10.15;;;6.43;;
47625;SDS011;33342;45.574;9.252;2023-05-10T14:10:32;9.25;;;6.85;;
47625;SDS011;33342;45.574;9.252;2023-05-10T14:12:59;8.52;;;6.10;;
47625;SDS011;33342;45.574;9.252;2023-05-10T14:15:26;8.43;;;6.53;;
47625;SDS011;33342;45.574;9.252;2023-05-10T14:17:53;7.78;;;6.00;;
47625;SDS011;33342;45.574;9.252;2023-05-10T14:20:20;9.48;;;6.07;;
47625;SDS011;33342;45.574;9.252;2023-05-10T14:22:47;7.57;;;5.72;;
47625;SDS011;33342;45.574;9.252;2023-05-10T14:25:14;7.70;;;6.05;;
47625;SDS011;33342;45.574;9.252;2023-05-10T14:27:41;7.53;;;6.25;;
47625;SDS011;33342;45.574;9.252;2023-05-10T14:30:08;10.50;;;6.90;;
47625;SDS011;33342;45.574;9.252;2023-05-10T14:32:36;7.97;;;6.50;;
47625;SDS011;33342;45.574;9.252;2023-05-10T14:35:03;7.82;;;6.05;;
47625;SDS011;33342;45.574;9.252;2023-05-10T14:37:32;21.48;;;18.88;;
47625;SDS011;33342;45.574;9.252;2023-05-10T14:39:59;10.77;;;8.40;;
47625;SDS011;33342;45.574;9.252;2023-05-10T14:42:26;7.60;;;6.22;;
47625;SDS011;33342;45.574;9.252;2023-05-10T14:44:54;8.85;;;6.90;;
47625;SDS011;33342;45.574;9.252;2023-05-10T14:47:21;8.45;;;6.45;;
47625;SDS011;33342;45.574;9.252;2023-05-10T14:49:48;9.27;;;6.88;;
47625;SDS011;33342;45.574;9.252;2023-05-10T14:52:15;9.57;;;7.00;;
47625;SDS011;33342;45.574;9.252;2023-05-10T14:54:42;9.82;;;6.95;;
47625;SDS011;33342;45.574;9.252;2023-05-10T14:57:09;9.85;;;6.63;;
47625;SDS011;33342;45.574;9.252;2023-05-10T14:59:36;12.02;;;6.65;;
47625;SDS011;33342;45.574;9.252;2023-05-10T15:02:04;8.32;;;6.40;;
47625;SDS011;33342;45.574;9.252;2023-05-10T15:04:31;8.68;;;6.60;;
47625;SDS011;33342;45.574;9.252;2023-05-10T15:06:58;9.90;;;6.75;;
47625;SDS011;33342;45.574;9.252;2023-05-10T15:09:26;10.82;;;6.93;;
47625;SDS011;33342;45.574;9.252;2023-05-10T15:11:56;8.77;;;6.55;;
47625;SDS011;33342;45.574;9.252;2023-05-10T15:14:23;11.02;;;6.78;;
47625;SDS011;33342;45.574;9.252;2023-05-10T15:16:50;9.02;;;7.43;;
47625;SDS011;33342;45.574;9.252;2023-05-10T15:19:16;10.25;;;7.47;;
47625;SDS011;33342;45.574;9.252;2023-05-10T15:21:43;8.98;;;7.20;;
47625;SDS011;33342;45.574;9.252;2023-05-10T15:24:11;11.02;;;8.50;;
47625;SDS011;33342;45.574;9.252;2023-05-10T15:26:38;11.65;;;7.90;;